aviador You're here:

PAKH Decoded Metar

in _UNIDENTIFIED
Report Time2018-06-22 22:43:00
UTC Time2018-06-22 23:00:36
Flight Rules vfr VFR
Wind170° at 09 kt
W.Decomp.*RWY 22: 3.4 kt HW 8.3 kt LCW
W.Rank170° ranks 36
Current wind is below 170° avg. (9.2)
Visibility9999 m
Phenomena:N/A
Clouds:Few 024 Hf
Scattered 044 Hf
Overcast 060 Hf
Expected CloudBase > 1,600 ft AGL from Temp-Dew spread
Ceiling6,000 ft
Temp11°C (ISA -4)
Dew Point07°C (77% RH)
AAT7.1°C
QNH1020 hPa
Density Alt-522 ft
Elevation46 ft
Report Wrong Elevation
Raw Report
PAKH 222243Z AUTO 17009KT 10SM FEW024 SCT044 OVC060 11/07 A3013
RMK AO2 $=

Extra information for PAKH:More info

Social comments